sensor_id;sensor_type;location;lat;lon;timestamp;temperature;humidity
14946;DHT22;7567;50.916;6.900;2023-12-20T08:41:51;6.40;99.90
14946;DHT22;7567;50.916;6.900;2023-12-20T08:44:19;6.80;99.90
14946;DHT22;7567;50.916;6.900;2023-12-20T08:46:57;6.70;99.90
14946;DHT22;7567;50.916;6.900;2023-12-20T08:49:29;6.70;99.90
14946;DHT22;7567;50.916;6.900;2023-12-20T08:51:55;6.70;99.90
14946;DHT22;7567;50.916;6.900;2023-12-20T08:54:21;6.70;99.90
14946;DHT22;7567;50.916;6.900;2023-12-20T08:56:47;6.70;99.90
14946;DHT22;7567;50.916;6.900;2023-12-20T08:59:13;6.80;99.90
14946;DHT22;7567;50.916;6.900;2023-12-20T09:01:39;6.80;99.90
14946;DHT22;7567;50.916;6.900;2023-12-20T09:04:05;6.80;99.90
14946;DHT22;7567;50.916;6.900;2023-12-20T09:06:32;6.80;99.90
14946;DHT22;7567;50.916;6.900;2023-12-20T09:08:58;6.90;99.90
14946;DHT22;7567;50.916;6.900;2023-12-20T09:11:23;7.00;99.90
14946;DHT22;7567;50.916;6.900;2023-12-20T09:13:49;7.00;99.90
14946;DHT22;7567;50.916;6.900;2023-12-20T09:16:16;7.00;99.90
14946;DHT22;7567;50.916;6.900;2023-12-20T09:18:42;7.00;99.90
14946;DHT22;7567;50.916;6.900;2023-12-20T09:21:14;7.00;99.90
14946;DHT22;7567;50.916;6.900;2023-12-20T09:23:40;6.90;99.90
14946;DHT22;7567;50.916;6.900;2023-12-20T09:26:06;6.90;99.90
14946;DHT22;7567;50.916;6.900;2023-12-20T09:28:32;6.90;99.90
14946;DHT22;7567;50.916;6.900;2023-12-20T09:31:03;6.90;99.90
14946;DHT22;7567;50.916;6.900;2023-12-20T09:33:41;6.90;99.90
14946;DHT22;7567;50.916;6.900;2023-12-20T09:36:13;6.90;99.90
14946;DHT22;7567;50.916;6.900;2023-12-20T09:38:51;6.90;99.90
14946;DHT22;7567;50.916;6.900;2023-12-20T09:41:17;6.90;99.90
14946;DHT22;7567;50.916;6.900;2023-12-20T09:43:44;6.90;99.90
14946;DHT22;7567;50.916;6.900;2023-12-20T09:46:10;7.00;99.90
14946;DHT22;7567;50.916;6.900;2023-12-20T09:48:37;6.90;99.90
14946;DHT22;7567;50.916;6.900;2023-12-20T09:51:04;7.00;99.90
14946;DHT22;7567;50.916;6.900;2023-12-20T09:53:30;7.00;99.90
14946;DHT22;7567;50.916;6.900;2023-12-20T09:55:59;7.00;99.90
14946;DHT22;7567;50.916;6.900;2023-12-20T09:58:28;7.00;99.90
14946;DHT22;7567;50.916;6.900;2023-12-20T10:00:55;7.00;99.90
14946;DHT22;7567;50.916;6.900;2023-12-20T10:03:25;7.10;99.90
14946;DHT22;7567;50.916;6.900;2023-12-20T10:05:55;7.10;99.90
14946;DHT22;7567;50.916;6.900;2023-12-20T10:08:22;7.00;99.90
14946;DHT22;7567;50.916;6.900;2023-12-20T10:10:48;7.00;99.90
14946;DHT22;7567;50.916;6.900;2023-12-20T10:17:04;7.10;99.90
14946;DHT22;7567;50.916;6.900;2023-12-20T10:19:34;7.10;99.90
14946;DHT22;7567;50.916;6.900;2023-12-20T10:22:00;7.10;99.90
14946;DHT22;7567;50.916;6.900;2023-12-20T10:24:28;7.10;99.90
14946;DHT22;7567;50.916;6.900;2023-12-20T10:27:05;7.10;99.90
14946;DHT22;7567;50.916;6.900;2023-12-20T10:29:33;7.20;99.90
14946;DHT22;7567;50.916;6.900;2023-12-20T10:31:59;7.20;99.90
14946;DHT22;7567;50.916;6.900;2023-12-20T10:34:25;7.30;99.90
14946;DHT22;7567;50.916;6.900;2023-12-20T10:36:52;7.30;99.90
14946;DHT22;7567;50.916;6.900;2023-12-20T10:39:17;7.30;99.90
14946;DHT22;7567;50.916;6.900;2023-12-20T10:41:46;7.30;99.90
14946;DHT22;7567;50.916;6.900;2023-12-20T10:44:15;7.30;99.90
14946;DHT22;7567;50.916;6.900;2023-12-20T10:47:01;7.30;99.90
14946;DHT22;7567;50.916;6.900;2023-12-20T10:49:27;7.30;99.90
14946;DHT22;7567;50.916;6.900;2023-12-20T10:51:54;7.30;99.90
14946;DHT22;7567;50.916;6.900;2023-12-20T10:54:22;7.30;99.90
14946;DHT22;7567;50.916;6.900;2023-12-20T10:56:50;7.30;99.90
14946;DHT22;7567;50.916;6.900;2023-12-20T10:59:20;7.30;99.90
14946;DHT22;7567;50.916;6.900;2023-12-20T11:01:48;7.30;99.90
14946;DHT22;7567;50.916;6.900;2023-12-20T11:04:25;7.30;99.90
14946;DHT22;7567;50.916;6.900;2023-12-20T11:07:29;7.30;99.90
14946;DHT22;7567;50.916;6.900;2023-12-20T11:10:16;7.40;99.90
14946;DHT22;7567;50.916;6.900;2023-12-20T11:12:54;7.30;99.90
14946;DHT22;7567;50.916;6.900;2023-12-20T11:15:21;7.30;99.90
14946;DHT22;7567;50.916;6.900;2023-12-20T11:17:57;7.30;99.90
14946;DHT22;7567;50.916;6.900;2023-12-20T11:20:24;7.40;99.90
14946;DHT22;7567;50.916;6.900;2023-12-20T11:23:00;7.40;99.90
14946;DHT22;7567;50.916;6.900;2023-12-20T11:25:27;7.30;99.90
14946;DHT22;7567;50.916;6.900;2023-12-20T11:28:09;7.40;99.90
14946;DHT22;7567;50.916;6.900;2023-12-20T11:31:04;7.40;99.90
14946;DHT22;7567;50.916;6.900;2023-12-20T11:33:38;7.40;99.90
14946;DHT22;7567;50.916;6.900;2023-12-20T11:36:24;7.40;99.90
14946;DHT22;7567;50.916;6.900;2023-12-20T11:38:56;7.40;99.90
14946;DHT22;7567;50.916;6.900;2023-12-20T11:41:23;7.40;99.90
14946;DHT22;7567;50.916;6.900;2023-12-20T11:43:56;7.40;99.90
14946;DHT22;7567;50.916;6.900;2023-12-20T11:46:27;7.50;99.90
14946;DHT22;7567;50.916;6.900;2023-12-20T11:48:54;7.50;99.90
14946;DHT22;7567;50.916;6.900;2023-12-20T11:51:20;7.50;99.90
14946;DHT22;7567;50.916;6.900;2023-12-20T11:53:51;7.60;99.90
14946;DHT22;7567;50.916;6.900;2023-12-20T11:56:18;7.50;99.90
14946;DHT22;7567;50.916;6.900;2023-12-20T11:58:44;7.50;99.90
14946;DHT22;7567;50.916;6.900;2023-12-20T12:01:10;7.50;99.90
14946;DHT22;7567;50.916;6.900;2023-12-20T12:03:36;7.50;99.90
14946;DHT22;7567;50.916;6.900;2023-12-20T12:06:02;7.60;99.90
14946;DHT22;7567;50.916;6.900;2023-12-20T12:08:30;7.50;99.90
14946;DHT22;7567;50.916;6.900;2023-12-20T12:10:56;7.50;99.90
14946;DHT22;7567;50.916;6.900;2023-12-20T12:13:22;7.50;99.90
14946;DHT22;7567;50.916;6.900;2023-12-20T12:15:48;7.50;99.90
14946;DHT22;7567;50.916;6.900;2023-12-20T12:18:18;7.50;99.90
14946;DHT22;7567;50.916;6.900;2023-12-20T12:20:44;7.50;99.90
14946;DHT22;7567;50.916;6.900;2023-12-20T12:23:23;7.50;99.90
14946;DHT22;7567;50.916;6.900;2023-12-20T12:25:53;7.50;99.90
14946;DHT22;7567;50.916;6.900;2023-12-20T12:28:20;7.50;99.90
14946;DHT22;7567;50.916;6.900;2023-12-20T12:30:59;7.50;99.90
14946;DHT22;7567;50.916;6.900;2023-12-20T12:33:26;7.50;99.90
14946;DHT22;7567;50.916;6.900;2023-12-20T12:35:52;7.50;99.90
14946;DHT22;7567;50.916;6.900;2023-12-20T12:38:21;7.60;99.90
14946;DHT22;7567;50.916;6.900;2023-12-20T12:40:47;7.50;99.90
14946;DHT22;7567;50.916;6.900;2023-12-20T12:43:13;7.50;99.90
14946;DHT22;7567;50.916;6.900;2023-12-20T12:45:39;7.50;99.90
14946;DHT22;7567;50.916;6.900;2023-12-20T12:48:06;7.60;99.90
14946;DHT22;7567;50.916;6.900;2023-12-20T12:50:32;7.60;99.90
14946;DHT22;7567;50.916;6.900;2023-12-20T12:53:10;7.50;99.90
14946;DHT22;7567;50.916;6.900;2023-12-20T12:55:36;7.60;99.90
14946;DHT22;7567;50.916;6.900;2023-12-20T12:58:02;7.70;99.90
14946;DHT22;7567;50.916;6.900;2023-12-20T13:00:28;7.70;99.90
14946;DHT22;7567;50.916;6.900;2023-12-20T13:02:54;7.60;99.90
14946;DHT22;7567;50.916;6.900;2023-12-20T13:05:20;7.60;99.90
14946;DHT22;7567;50.916;6.900;2023-12-20T13:07:46;7.60;99.90
14946;DHT22;7567;50.916;6.900;2023-12-20T13:10:25;7.50;99.90
14946;DHT22;7567;50.916;6.900;2023-12-20T13:12:51;7.50;99.90
14946;DHT22;7567;50.916;6.900;2023-12-20T13:15:17;7.50;99.90
14946;DHT22;7567;50.916;6.900;2023-12-20T13:17:43;7.50;99.90
14946;DHT22;7567;50.916;6.900;2023-12-20T13:20:12;7.50;99.90
14946;DHT22;7567;50.916;6.900;2023-12-20T13:22:37;7.40;99.90
14946;DHT22;7567;50.916;6.900;2023-12-20T13:25:04;7.50;99.90
14946;DHT22;7567;50.916;6.900;2023-12-20T13:27:30;7.50;99.90
14946;DHT22;7567;50.916;6.900;2023-12-20T13:29:56;7.50;99.90
14946;DHT22;7567;50.916;6.900;2023-12-20T13:32:22;7.50;99.90
14946;DHT22;7567;50.916;6.900;2023-12-20T13:34:48;7.50;99.90
14946;DHT22;7567;50.916;6.900;2023-12-20T13:37:14;7.50;99.90
14946;DHT22;7567;50.916;6.900;2023-12-20T13:39:40;7.60;99.90
14946;DHT22;7567;50.916;6.900;2023-12-20T13:42:06;7.70;99.90
14946;DHT22;7567;50.916;6.900;2023-12-20T13:44:33;7.70;99.90
14946;DHT22;7567;50.916;6.900;2023-12-20T13:46:59;7.70;99.90
14946;DHT22;7567;50.916;6.900;2023-12-20T13:49:26;7.70;99.90
14946;DHT22;7567;50.916;6.900;2023-12-20T13:51:53;7.70;99.90
14946;DHT22;7567;50.916;6.900;2023-12-20T13:54:20;7.70;99.90
14946;DHT22;7567;50.916;6.900;2023-12-20T13:56:48;7.80;99.90
14946;DHT22;7567;50.916;6.900;2023-12-20T13:59:13;7.70;99.90
14946;DHT22;7567;50.916;6.900;2023-12-20T14:01:40;7.70;99.90
14946;DHT22;7567;50.916;6.900;2023-12-20T14:04:06;7.70;99.90
14946;DHT22;7567;50.916;6.900;2023-12-20T14:06:33;7.70;99.90
14946;DHT22;7567;50.916;6.900;2023-12-20T14:08:59;7.70;99.90
14946;DHT22;7567;50.916;6.900;2023-12-20T14:11:28;7.70;99.90
14946;DHT22;7567;50.916;6.900;2023-12-20T14:13:54;7.80;99.90
14946;DHT22;7567;50.916;6.900;2023-12-20T14:16:26;7.70;99.90
14946;DHT22;7567;50.916;6.900;2023-12-20T14:18:52;7.70;99.90
14946;DHT22;7567;50.916;6.900;2023-12-20T14:21:19;7.70;99.90
14946;DHT22;7567;50.916;6.900;2023-12-20T14:23:45;7.70;99.90
14946;DHT22;7567;50.916;6.900;2023-12-20T14:26:12;7.70;99.90
14946;DHT22;7567;50.916;6.900;2023-12-20T14:28:41;7.80;99.90
14946;DHT22;7567;50.916;6.900;2023-12-20T14:31:07;7.90;99.90
14946;DHT22;7567;50.916;6.900;2023-12-20T14:33:34;7.80;99.90
14946;DHT22;7567;50.916;6.900;2023-12-20T14:36:00;7.90;99.90
14946;DHT22;7567;50.916;6.900;2023-12-20T14:38:26;7.90;99.90
14946;DHT22;7567;50.916;6.900;2023-12-20T14:40:52;7.90;99.90
14946;DHT22;7567;50.916;6.900;2023-12-20T14:43:18;7.90;99.90
14946;DHT22;7567;50.916;6.900;2023-12-20T14:45:44;8.00;99.90
14946;DHT22;7567;50.916;6.900;2023-12-20T14:48:10;7.90;99.90
14946;DHT22;7567;50.916;6.900;2023-12-20T14:50:37;7.90;99.90
14946;DHT22;7567;50.916;6.900;2023-12-20T14:53:03;8.00;99.90
14946;DHT22;7567;50.916;6.900;2023-12-20T14:55:38;7.90;99.90
14946;DHT22;7567;50.916;6.900;2023-12-20T14:58:05;7.90;99.90
14946;DHT22;7567;50.916;6.900;2023-12-20T15:00:30;8.00;99.90
14946;DHT22;7567;50.916;6.900;2023-12-20T15:02:57;7.90;99.90
14946;DHT22;7567;50.916;6.900;2023-12-20T15:05:23;8.00;99.90
14946;DHT22;7567;50.916;6.900;2023-12-20T15:07:49;7.90;99.90
14946;DHT22;7567;50.916;6.900;2023-12-20T15:10:15;8.00;99.90
14946;DHT22;7567;50.916;6.900;2023-12-20T15:12:43;7.90;99.90
14946;DHT22;7567;50.916;6.900;2023-12-20T15:15:09;7.90;99.90
14946;DHT22;7567;50.916;6.900;2023-12-20T15:17:35;7.90;99.90
14946;DHT22;7567;50.916;6.900;2023-12-20T15:20:14;7.90;99.90
14946;DHT22;7567;50.916;6.900;2023-12-20T15:22:40;7.90;99.90
14946;DHT22;7567;50.916;6.900;2023-12-20T15:25:07;7.90;99.90
14946;DHT22;7567;50.916;6.900;2023-12-20T15:27:35;7.90;99.90
14946;DHT22;7567;50.916;6.900;2023-12-20T15:30:05;7.90;99.90
